Time;durP1;ratioP1;P1;durP2;ratioP2;P2;SDS_P1;SDS_P2;PMS_P1;PMS_P2;Temp;Humidity;BMP_temperature;BMP_pressure;BME280_temperature;BME280_humidity;BME280_pressure;Samples;Min_cycle;Max_cycle;Signal;HPM_P1;HPM_P2
2022/06/19 00:01:03;;;;;;;8.32;0.63;;;16.00;94.50;;;;;;5093493;28;20117;-74
2022/06/19 00:03:36;;;;;;;6.70;0.85;;;16.00;95.00;;;;;;5094008;28;20020;-75
2022/06/19 00:06:02;;;;;;;7.75;0.00;;;16.00;95.40;;;;;;5092313;28;20028;-76
2022/06/19 00:08:29;;;;;;;3.90;0.30;;;15.90;95.30;;;;;;5094193;28;20020;-74
2022/06/19 00:10:55;;;;;;;4.88;0.45;;;15.80;96.00;;;;;;5093780;28;20024;-74
2022/06/19 00:13:20;;;;;;;3.35;0.32;;;15.80;96.30;;;;;;5092636;28;20489;-74
2022/06/19 00:15:46;;;;;;;4.30;0.17;;;15.60;96.30;;;;;;5074171;28;20078;-74
2022/06/19 00:18:12;;;;;;;4.18;0.38;;;15.70;96.90;;;;;;5093235;28;20030;-74
2022/06/19 00:20:38;;;;;;;4.70;0.10;;;15.60;97.60;;;;;;5095536;28;20027;-73
2022/06/19 00:23:04;;;;;;;3.22;0.00;;;15.60;98.20;;;;;;5097532;28;20424;-74
2022/06/19 00:25:29;;;;;;;6.82;0.65;;;15.70;98.40;;;;;;5096442;28;20071;-74
2022/06/19 00:27:55;;;;;;;7.57;0.70;;;15.70;98.60;;;;;;5096438;28;20542;-73
2022/06/19 00:30:21;;;;;;;6.93;0.40;;;15.70;98.90;;;;;;5078305;28;20430;-73
2022/06/19 00:32:46;;;;;;;8.15;0.98;;;15.70;99.20;;;;;;5096294;28;20032;-74
2022/06/19 00:35:12;;;;;;;5.20;0.20;;;15.70;99.10;;;;;;5096131;28;20020;-74
2022/06/19 00:37:38;;;;;;;5.03;0.10;;;15.80;99.30;;;;;;5096310;28;20028;-73
2022/06/19 00:40:07;;;;;;;5.57;0.43;;;15.80;99.50;;;;;;5096858;28;20020;-73
2022/06/19 00:42:33;;;;;;;10.48;0.30;;;15.80;99.30;;;;;;5095039;28;20582;-74
2022/06/19 00:45:00;;;;;;;7.28;0.88;;;15.90;99.20;;;;;;5096639;28;20048;-74
2022/06/19 00:47:34;;;;;;;0.70;0.05;;;15.90;99.00;;;;;;5096236;28;20119;-74
2022/06/19 00:50:21;;;;;;;7.05;0.60;;;15.90;98.40;;;;;;5096343;28;20020;-75
2022/06/19 00:52:46;;;;;;;6.60;0.35;;;15.90;97.20;;;;;;5096281;28;20032;-75
2022/06/19 00:55:19;;;;;;;5.97;0.32;;;15.80;97.80;;;;;;5096162;28;20107;-75
2022/06/19 00:57:50;;;;;;;7.78;0.70;;;15.90;97.70;;;;;;5095668;28;20103;-75
2022/06/19 01:00:27;;;;;;;1.85;0.00;;;15.90;95.80;;;;;;5094508;28;20515;-74
2022/06/19 01:02:56;;;;;;;4.70;0.28;;;15.90;94.20;;;;;;5094706;28;20031;-74
2022/06/19 01:05:25;;;;;;;3.00;0.25;;;16.30;93.30;;;;;;5096164;28;20022;-77
2022/06/19 01:07:51;;;;;;;9.60;1.05;;;16.00;91.70;;;;;;5095479;28;20038;-75
2022/06/19 01:10:16;;;;;;;3.80;0.35;;;16.00;91.00;;;;;;5094336;28;20479;-76
2022/06/19 01:12:45;;;;;;;1.45;0.30;;;16.00;89.80;;;;;;5095557;28;20024;-75
2022/06/19 01:15:15;;;;;;;7.22;0.30;;;16.10;88.40;;;;;;5094328;28;20119;-75
2022/06/19 01:17:41;;;;;;;3.75;0.30;;;16.40;88.10;;;;;;5095862;28;20050;-75
2022/06/19 01:20:11;;;;;;;1.98;0.00;;;16.10;89.20;;;;;;5095662;28;20024;-74
2022/06/19 01:23:07;;;;;;;5.07;0.40;;;16.10;90.10;;;;;;5095837;28;20020;-76
2022/06/19 01:25:36;;;;;;;1.00;0.13;;;16.10;90.90;;;;;;5096059;28;20020;-74
2022/06/19 01:30:51;;;;;;;1.35;0.22;;;16.10;90.40;;;;;;5095539;28;20133;-75
2022/06/19 01:33:26;;;;;;;3.58;0.00;;;16.20;90.10;;;;;;5095525;28;20133;-75
2022/06/19 01:35:54;;;;;;;3.42;0.00;;;16.20;90.60;;;;;;5095296;28;20095;-74
2022/06/19 01:38:23;;;;;;;2.85;0.00;;;16.20;91.10;;;;;;5095393;28;20119;-75
2022/06/19 01:40:52;;;;;;;4.13;0.00;;;16.20;91.80;;;;;;5077132;28;20027;-75
2022/06/19 01:43:18;;;;;;;0.75;0.00;;;16.20;92.00;;;;;;5077034;28;20602;-75
2022/06/19 01:45:48;;;;;;;1.65;0.10;;;16.50;92.70;;;;;;5095224;28;20024;-74
2022/06/19 01:48:15;;;;;;;1.30;0.05;;;16.30;93.20;;;;;;5093925;28;20400;-74
2022/06/19 01:50:42;;;;;;;3.35;0.22;;;16.30;93.80;;;;;;5095529;28;20423;-74
2022/06/19 01:53:17;;;;;;;3.45;0.50;;;16.30;94.10;;;;;;5095182;28;20028;-74
2022/06/19 01:55:44;;;;;;;1.67;0.00;;;16.30;95.00;;;;;;5095028;28;20024;-74
2022/06/19 01:58:10;;;;;;;2.95;0.00;;;16.20;95.80;;;;;;5095392;28;20103;-74
2022/06/19 02:00:37;;;;;;;0.73;0.00;;;16.20;96.50;;;;;;5094510;28;20520;-74
2022/06/19 02:03:20;;;;;;;1.83;0.00;;;16.20;95.80;;;;;;5094730;28;20041;-74
2022/06/19 02:05:47;;;;;;;2.45;0.38;;;16.20;96.10;;;;;;5076553;28;20020;-75
2022/06/19 02:08:15;;;;;;;4.47;0.15;;;16.20;97.40;;;;;;5094997;28;20110;-75
2022/06/19 02:10:42;;;;;;;1.55;0.00;;;16.10;96.10;;;;;;5094576;28;20353;-75
2022/06/19 02:13:12;;;;;;;0.22;0.00;;;16.10;95.90;;;;;;5094557;28;20388;-74
2022/06/19 02:15:39;;;;;;;3.25;0.28;;;16.10;95.10;;;;;;5094612;28;20036;-75
2022/06/19 02:18:09;;;;;;;3.08;0.38;;;16.10;95.40;;;;;;5094184;28;20024;-75
2022/06/19 02:20:35;;;;;;;3.20;0.10;;;16.00;94.40;;;;;;5094672;28;20020;-75
2022/06/19 02:23:05;;;;;;;2.35;0.00;;;16.00;94.70;;;;;;5093420;28;20076;-75
2022/06/19 02:25:35;;;;;;;2.35;0.10;;;16.00;94.00;;;;;;5095641;28;20012;-75
2022/06/19 02:28:04;;;;;;;3.55;0.32;;;15.90;94.40;;;;;;5094321;28;20028;-74
2022/06/19 02:30:30;;;;;;;1.50;0.08;;;15.90;93.80;;;;;;5093199;28;20024;-75
2022/06/19 02:32:56;;;;;;;4.47;0.50;;;15.90;92.60;;;;;;5094307;28;20110;-75
2022/06/19 02:35:24;;;;;;;0.75;0.13;;;16.00;89.20;;;;;;5094093;28;20052;-74
2022/06/19 02:37:53;;;;;;;3.00;0.00;;;15.90;87.00;;;;;;5093982;28;20024;-75
2022/06/19 02:40:22;;;;;;;4.85;0.52;;;15.90;88.80;;;;;;5094020;28;20043;-75
2022/06/19 02:42:48;;;;;;;4.38;0.05;;;15.90;90.30;;;;;;5075901;28;20024;-75
2022/06/19 02:45:19;;;;;;;2.53;0.25;;;15.90;91.70;;;;;;5094512;28;20019;-75
2022/06/19 02:47:46;;;;;;;5.65;0.10;;;15.90;91.90;;;;;;5092747;28;20107;-75
2022/06/19 02:50:16;;;;;;;1.33;0.00;;;15.90;93.60;;;;;;5076006;28;20024;-75
2022/06/19 02:52:42;;;;;;;5.93;0.65;;;15.90;94.80;;;;;;5075939;28;20024;-75
2022/06/19 02:55:09;;;;;;;6.25;0.30;;;15.90;95.70;;;;;;5093810;28;20489;-75
2022/06/19 02:57:35;;;;;;;7.00;0.22;;;15.80;97.40;;;;;;5092609;28;20012;-75
2022/06/19 03:00:01;;;;;;;5.22;0.32;;;16.00;98.40;;;;;;5092419;28;20050;-75
2022/06/19 03:02:28;;;;;;;4.93;0.50;;;15.90;99.80;;;;;;5094025;28;20487;-75
2022/06/19 03:04:57;;;;;;;2.10;0.05;;;15.90;99.90;;;;;;5094032;28;20024;-75
2022/06/19 03:07:26;;;;;;;4.13;1.00;;;15.90;99.90;;;;;;5093705;28;20095;-75
2022/06/19 03:09:52;;;;;;;;;;;15.90;99.90;;;;;;5075891;28;20381;-75
2022/06/19 03:12:18;;;;;;;7.75;0.25;;;15.90;99.90;;;;;;5093736;28;19904;-75
2022/06/19 03:14:47;;;;;;;4.10;0.05;;;16.00;99.90;;;;;;5093975;28;20020;-75
2022/06/19 03:17:16;;;;;;;;;;;15.90;99.90;;;;;;5094023;28;20107;-75
2022/06/19 03:19:42;;;;;;;8.43;0.45;;;16.00;99.90;;;;;;5075369;28;19915;-75
2022/06/19 03:22:09;;;;;;;6.13;0.22;;;16.00;99.90;;;;;;5075130;28;20107;-76
2022/06/19 03:24:34;;;;;;;6.85;0.85;;;16.00;99.90;;;;;;5092160;28;20078;-75
2022/06/19 03:27:00;;;;;;;9.73;0.50;;;16.00;99.90;;;;;;5093718;28;20389;-75
2022/06/19 03:29:25;;;;;;;3.38;0.00;;;16.10;99.90;;;;;;5093408;28;20021;-75
2022/06/19 03:31:51;;;;;;;2.58;0.00;;;16.00;99.90;;;;;;5093775;28;20152;-75
2022/06/19 03:34:16;;;;;;;5.30;0.73;;;16.00;99.90;;;;;;5093689;28;20028;-75
2022/06/19 03:36:42;;;;;;;4.85;0.25;;;15.90;99.90;;;;;;5093497;28;20050;-75
2022/06/19 03:39:09;;;;;;;3.72;0.08;;;16.00;99.90;;;;;;5093255;28;20161;-74
2022/06/19 03:41:35;;;;;;;4.68;0.15;;;15.90;99.90;;;;;;5093434;28;20020;-74
2022/06/19 03:44:01;;;;;;;2.45;0.20;;;15.90;99.70;;;;;;5093162;28;20072;-74
2022/06/19 03:46:26;;;;;;;7.35;0.30;;;15.80;99.90;;;;;;5093244;28;20421;-74
2022/06/19 03:48:52;;;;;;;5.70;0.45;;;15.90;99.10;;;;;;5092568;28;20484;-74
2022/06/19 03:51:22;;;;;;;3.03;0.00;;;15.90;98.80;;;;;;5093180;28;20020;-73
2022/06/19 03:53:50;;;;;;;6.28;0.10;;;15.90;98.10;;;;;;5095379;28;20081;-73
2022/06/19 03:56:22;;;;;;;7.40;0.08;;;15.80;97.80;;;;;;5097388;28;20027;-73
2022/06/19 03:58:49;;;;;;;3.30;0.45;;;15.80;97.60;;;;;;5097062;28;20370;-73
2022/06/19 04:01:16;;;;;;;7.13;0.08;;;15.80;96.50;;;;;;5097509;28;20089;-73
2022/06/19 04:03:42;;;;;;;3.63;0.57;;;15.80;97.00;;;;;;5097320;28;20434;-73
2022/06/19 04:06:12;;;;;;;2.42;0.20;;;15.90;96.10;;;;;;5097395;28;20084;-73
2022/06/19 04:08:38;;;;;;;1.50;0.15;;;15.80;94.20;;;;;;5096989;28;20081;-72
2022/06/19 04:11:08;;;;;;;2.38;0.10;;;15.80;93.60;;;;;;5078784;28;20043;-72
2022/06/19 04:13:34;;;;;;;4.97;0.20;;;15.90;93.50;;;;;;5096024;28;20016;-73
2022/06/19 04:16:01;;;;;;;4.85;0.43;;;15.90;92.90;;;;;;5097477;28;20464;-73
2022/06/19 04:18:29;;;;;;;2.97;0.00;;;15.90;92.60;;;;;;5096624;28;20024;-73
2022/06/19 04:20:56;;;;;;;4.03;0.10;;;15.90;93.30;;;;;;5096859;28;20469;-73
2022/06/19 04:23:22;;;;;;;6.07;0.10;;;15.90;93.90;;;;;;5096763;28;20016;-74
2022/06/19 04:25:48;;;;;;;1.45;0.00;;;15.80;95.70;;;;;;5096710;28;20028;-73
2022/06/19 04:28:15;;;;;;;3.50;0.00;;;15.70;96.70;;;;;;5096850;28;20020;-73
2022/06/19 04:30:46;;;;;;;5.35;0.10;;;15.40;97.70;;;;;;5095306;28;20028;-73
2022/06/19 04:33:13;;;;;;;5.05;0.10;;;15.30;99.10;;;;;;5097235;28;20077;-73
2022/06/19 04:35:39;;;;;;;2.45;0.00;;;15.20;99.80;;;;;;5096824;28;20028;-73
2022/06/19 04:38:04;;;;;;;1.83;0.00;;;15.00;99.90;;;;;;5096528;28;20035;-73
2022/06/19 04:40:30;;;;;;;1.27;0.10;;;14.90;99.90;;;;;;5078458;28;20018;-73
2022/06/19 04:42:55;;;;;;;2.95;0.08;;;14.90;99.90;;;;;;5096591;28;20030;-72
2022/06/19 04:45:21;;;;;;;6.18;0.95;;;14.80;99.90;;;;;;5099196;28;20051;-75
2022/06/19 04:47:46;;;;;;;2.65;0.20;;;14.70;99.90;;;;;;5096302;28;20020;-75
2022/06/19 04:50:13;;;;;;;3.17;0.52;;;14.60;99.90;;;;;;5095906;28;20099;-74
2022/06/19 04:52:38;;;;;;;3.47;0.30;;;14.50;99.90;;;;;;5096327;28;20024;-74
2022/06/19 04:55:04;;;;;;;2.60;0.00;;;14.50;99.90;;;;;;5078150;28;20024;-74
2022/06/19 04:57:30;;;;;;;2.50;0.00;;;14.40;99.90;;;;;;5096603;28;20031;-74
2022/06/19 04:59:55;;;;;;;8.43;1.02;;;14.40;99.90;;;;;;5096203;28;20046;-74
2022/06/19 05:02:21;;;;;;;7.60;0.55;;;14.40;99.90;;;;;;5096181;28;20043;-75
2022/06/19 05:04:49;;;;;;;5.70;0.43;;;14.50;99.90;;;;;;5095853;28;20023;-75
2022/06/19 05:07:15;;;;;;;;;;;14.50;99.90;;;;;;5096260;28;20093;-75
2022/06/19 05:09:41;;;;;;;3.10;0.65;;;14.60;99.90;;;;;;5095962;28;19904;-75
2022/06/19 05:12:06;;;;;;;12.60;0.68;;;14.60;99.90;;;;;;5096147;28;20028;-75
2022/06/19 05:14:32;;;;;;;3.00;0.15;;;14.70;99.90;;;;;;5095832;28;20020;-75
2022/06/19 05:16:58;;;;;;;7.25;0.32;;;14.70;99.90;;;;;;5095674;28;20020;-75
2022/06/19 05:19:23;;;;;;;3.95;0.65;;;14.80;99.90;;;;;;5095889;28;20031;-74
2022/06/19 05:21:49;;;;;;;19.83;0.82;;;14.90;99.90;;;;;;5094454;28;20023;-74
2022/06/19 05:24:15;;;;;;;6.30;0.40;;;15.00;99.90;;;;;;5096033;28;20372;-74
2022/06/19 05:26:40;;;;;;;5.15;0.08;;;15.00;99.90;;;;;;5095638;28;20055;-74
2022/06/19 05:29:06;;;;;;;1.92;0.28;;;15.10;99.90;;;;;;5096135;28;20027;-74
2022/06/19 05:31:33;;;;;;;12.00;0.65;;;15.10;99.90;;;;;;5094098;28;20465;-74
2022/06/19 05:33:59;;;;;;;3.38;0.08;;;15.10;99.90;;;;;;5095664;28;20028;-73
2022/06/19 05:36:29;;;;;;;3.85;0.20;;;15.20;99.90;;;;;;5094445;28;20016;-74
2022/06/19 05:38:55;;;;;;;2.85;0.30;;;15.20;99.90;;;;;;5095425;28;20481;-74
2022/06/19 05:41:21;;;;;;;3.53;0.10;;;15.20;99.90;;;;;;5094004;28;20444;-75
2022/06/19 05:43:50;;;;;;;8.57;0.45;;;15.20;99.90;;;;;;5095264;28;20024;-75
2022/06/19 05:46:18;;;;;;;7.60;0.90;;;15.10;99.90;;;;;;5076939;28;20020;-74
2022/06/19 05:48:44;;;;;;;4.18;0.30;;;15.10;99.90;;;;;;5094922;28;20076;-75
2022/06/19 05:51:13;;;;;;;2.05;0.10;;;15.10;99.90;;;;;;5095156;28;20036;-75
2022/06/19 05:53:44;;;;;;;5.63;0.30;;;15.10;99.90;;;;;;5095304;28;20030;-75
2022/06/19 05:56:11;;;;;;;4.75;0.57;;;15.30;99.90;;;;;;5095603;28;20430;-75
2022/06/19 05:58:36;;;;;;;9.25;0.17;;;15.20;99.90;;;;;;5094938;28;20035;-76
2022/06/19 06:01:19;;;;;;;7.82;0.10;;;15.20;99.90;;;;;;5128369;22;20056;-87
2022/06/19 06:04:14;;;;;;;7.18;0.80;;;15.20;99.90;;;;;;5096974;28;20028;-87
2022/06/19 06:07:12;;;;;;;7.00;0.32;;;16.70;99.90;;;;;;5090421;28;20020;-87
2022/06/19 06:09:38;;;;;;;13.07;0.98;;;15.10;99.90;;;;;;5087093;28;20074;-87
2022/06/19 06:12:05;;;;;;;6.10;0.65;;;15.50;99.90;;;;;;5103030;28;20484;-86
2022/06/19 06:14:31;;;;;;;5.30;0.00;;;15.20;99.90;;;;;;5084680;28;20515;-87
2022/06/19 06:17:00;;;;;;;2.83;0.30;;;15.00;99.90;;;;;;5082301;28;20024;-87
2022/06/19 06:19:26;;;;;;;5.50;0.50;;;16.80;99.90;;;;;;5082861;28;20025;-86
2022/06/19 06:21:52;;;;;;;6.10;0.65;;;18.30;99.90;;;;;;5082755;28;20020;-86
2022/06/19 06:24:18;;;;;;;6.80;0.88;;;15.90;99.90;;;;;;5083001;28;20028;-86
2022/06/19 06:26:43;;;;;;;3.97;0.08;;;15.70;99.90;;;;;;5082550;28;20024;-87
2022/06/19 06:29:20;;;;;;;7.07;0.10;;;15.10;99.90;;;;;;5082276;28;20028;-87
2022/06/19 06:31:55;;;;;;;5.25;0.00;;;17.80;99.90;;;;;;5082261;28;20349;-87
2022/06/19 06:34:38;;;;;;;;;;;;;;;;;;;;;
2022/06/19 06:37:04;;;;;;;5.07;0.15;;;17.80;99.90;;;;;;5099207;28;20107;-87
2022/06/19 06:39:33;;;;;;;7.95;0.35;;;18.20;99.90;;;;;;5081264;28;20054;-86
2022/06/19 06:42:02;;;;;;;;;;;15.60;99.90;;;;;;5074981;28;20020;-85
2022/06/19 06:44:28;;;;;;;4.57;0.25;;;16.30;99.90;;;;;;5060097;28;19905;-85
2022/06/19 06:46:54;;;;;;;8.40;0.88;;;14.90;99.90;;;;;;5061689;28;20024;-85
2022/06/19 06:49:20;;;;;;;5.57;0.10;;;14.40;99.90;;;;;;5062989;28;20024;-86
2022/06/19 06:51:46;;;;;;;4.05;0.52;;;15.20;99.90;;;;;;5062592;28;20079;-86
2022/06/19 06:54:11;;;;;;;4.72;0.08;;;15.40;99.90;;;;;;5062302;28;20020;-86
2022/06/19 06:56:40;;;;;;;2.17;0.00;;;14.50;99.90;;;;;;5080871;28;20503;-86
2022/06/19 06:59:12;;;;;;;9.50;1.20;;;15.10;99.90;;;;;;5079523;28;20028;-86
2022/06/19 07:01:57;;;;;;;5.55;0.00;;;13.60;99.90;;;;;;5078708;28;20024;-86
2022/06/19 07:04:38;;;;;;;4.13;0.65;;;12.30;99.90;;;;;;5079379;28;20017;-85
2022/06/19 07:07:04;;;;;;;2.90;0.63;;;12.00;99.90;;;;;;5061143;28;20024;-86
2022/06/19 07:09:39;;;;;;;12.52;0.93;;;14.90;99.90;;;;;;5045600;28;20048;-86
2022/06/19 07:12:06;;;;;;;4.43;0.63;;;14.90;99.90;;;;;;5061833;28;20044;-85
2022/06/19 07:14:32;;;;;;;5.75;0.40;;;15.20;99.90;;;;;;5061503;28;20481;-85
2022/06/19 07:17:06;;;;;;;4.22;0.17;;;15.30;99.90;;;;;;5061226;28;20481;-85
2022/06/19 07:19:38;;;;;;;6.80;0.20;;;14.80;99.90;;;;;;5060929;28;20502;-86
2022/06/19 07:22:04;;;;;;;6.75;0.32;;;12.80;99.90;;;;;;5060137;28;20021;-85
2022/06/19 07:24:30;;;;;;;4.90;0.10;;;15.50;99.90;;;;;;5077893;28;20066;-87
2022/06/19 07:26:56;;;;;;;1.80;0.10;;;18.00;99.90;;;;;;5060464;28;20029;-85
2022/06/19 07:29:22;;;;;;;10.95;0.47;;;14.60;99.90;;;;;;5064664;28;20091;-86
2022/06/19 07:31:54;;;;;;;1.00;0.47;;;15.60;99.90;;;;;;5065147;28;20062;-85
2022/06/19 07:34:23;;;;;;;4.50;0.00;;;15.50;99.90;;;;;;5064835;28;20031;-85
2022/06/19 07:36:49;;;;;;;8.57;0.82;;;18.00;99.90;;;;;;5064490;28;20408;-85
2022/06/19 07:39:15;;;;;;;4.82;0.28;;;15.40;99.90;;;;;;5062787;28;20024;-85
2022/06/19 07:41:53;;;;;;;4.88;0.00;;;12.50;99.90;;;;;;5062350;28;20432;-86
2022/06/19 07:44:19;;;;;;;6.80;0.10;;;14.30;99.90;;;;;;5081047;28;20020;-86
2022/06/19 07:52:22;;;;;;;3.10;0.00;;;15.20;99.90;;;;;;5101868;28;20511;-88
2022/06/19 07:54:48;;;;;;;2.72;0.08;;;15.00;99.90;;;;;;5082384;28;20032;-87
2022/06/19 07:57:14;;;;;;;4.47;0.00;;;14.90;99.90;;;;;;5101211;28;20391;-88
2022/06/19 07:59:40;;;;;;;7.13;0.15;;;16.90;99.90;;;;;;5071492;28;20032;-87
2022/06/19 08:02:06;;;;;;;2.67;0.28;;;15.20;99.90;;;;;;5093753;28;20103;-88
2022/06/19 08:04:32;;;;;;;4.40;0.52;;;15.60;99.90;;;;;;5076533;28;20050;-88
2022/06/19 08:06:57;;;;;;;6.63;0.15;;;12.70;99.90;;;;;;5073103;28;20029;-88
2022/06/19 08:09:26;;;;;;;3.80;0.38;;;15.40;99.90;;;;;;5075144;28;20032;-88
2022/06/19 08:11:52;;;;;;;;;;;15.60;99.90;;;;;;5098193;28;20024;-89
2022/06/19 08:14:17;;;;;;;2.47;0.08;;;16.10;99.90;;;;;;5107244;28;19930;-87
2022/06/19 08:16:43;;;;;;;6.97;0.70;;;15.80;99.90;;;;;;5087830;28;20047;-88
2022/06/19 08:19:09;;;;;;;4.28;0.38;;;16.00;99.90;;;;;;5087511;28;20028;-88
2022/06/19 08:21:35;;;;;;;3.70;0.25;;;15.80;99.90;;;;;;5085624;28;20108;-89
2022/06/19 08:24:00;;;;;;;8.57;0.22;;;17.90;99.90;;;;;;5086295;28;20067;-89
2022/06/19 08:26:26;;;;;;;4.43;0.05;;;16.30;99.90;;;;;;5106021;28;20025;-88
2022/06/19 08:31:21;;;;;;;4.45;0.40;;;15.70;99.90;;;;;;5104255;28;20032;-89
2022/06/19 08:33:46;;;;;;;2.45;0.38;;;16.40;99.90;;;;;;5086004;28;20557;-88
2022/06/19 08:36:12;;;;;;;3.72;0.00;;;16.10;99.90;;;;;;5101149;28;20024;-88
2022/06/19 08:38:43;;;;;;;3.30;0.00;;;18.20;99.90;;;;;;5093512;28;20085;-88
2022/06/19 08:41:28;;;;;;;5.20;0.03;;;16.40;99.90;;;;;;5088431;28;20021;-88
2022/06/19 08:43:56;;;;;;;4.93;0.22;;;16.30;99.90;;;;;;5083441;28;20024;-89
2022/06/19 08:46:36;;;;;;;2.88;0.50;;;16.60;99.90;;;;;;5086784;28;20020;-88
2022/06/19 08:49:08;;;;;;;3.22;0.45;;;15.80;99.90;;;;;;5103543;28;20028;-89
2022/06/19 08:52:00;;;;;;;4.53;0.30;;;16.90;99.90;;;;;;5084363;28;20032;-89
2022/06/19 08:54:35;;;;;;;5.97;0.68;;;16.60;99.90;;;;;;5084925;28;20028;-88
2022/06/19 08:57:22;;;;;;;3.97;0.00;;;16.90;99.90;;;;;;5085158;28;20032;-88
2022/06/19 09:00:21;;;;;;;6.03;0.43;;;16.50;99.90;;;;;;5082670;28;20043;-87
2022/06/19 09:03:20;;;;;;;5.00;0.35;;;16.80;99.90;;;;;;5081602;28;20115;-88
2022/06/19 09:06:10;;;;;;;2.63;0.32;;;16.80;99.90;;;;;;5082183;28;20036;-88
2022/06/19 09:09:14;;;;;;;6.22;0.45;;;15.80;99.90;;;;;;5082248;28;20448;-89
2022/06/19 09:12:20;;;;;;;5.45;0.35;;;16.10;99.90;;;;;;4981439;28;20030;-89
2022/06/19 09:15:08;;;;;;;7.72;0.25;;;14.80;99.90;;;;;;5038587;28;20046;-89
2022/06/19 09:17:49;;;;;;;;;;;;;;;;;;;;;
2022/06/19 09:24:41;;;;;;;;;;;;;;;;;;;;;
2022/06/19 09:31:03;;;;;;;6.53;0.15;;;17.50;99.90;;;;;;5012539;22;20079;-75
2022/06/19 09:33:42;;;;;;;4.53;0.57;;;17.20;99.90;;;;;;5095364;28;20028;-75
2022/06/19 09:36:31;;;;;;;5.90;0.43;;;17.20;99.90;;;;;;5095274;28;20389;-73
2022/06/19 09:39:05;;;;;;;4.40;0.00;;;17.50;99.90;;;;;;5065839;28;20503;-74
2022/06/19 09:41:41;;;;;;;4.25;0.57;;;18.10;99.90;;;;;;5095027;28;20073;-74
2022/06/19 09:44:19;;;;;;;4.20;0.08;;;18.60;99.90;;;;;;5077016;28;20035;-74
2022/06/19 09:47:03;;;;;;;1.27;0.20;;;18.90;99.90;;;;;;5094146;28;20054;-75
2022/06/19 09:49:53;;;;;;;2.50;0.30;;;19.40;99.90;;;;;;5083540;28;20027;-74
2022/06/19 09:52:27;;;;;;;3.63;0.20;;;19.70;99.90;;;;;;5094864;28;20110;-75
2022/06/19 09:55:02;;;;;;;3.63;0.10;;;19.90;99.90;;;;;;5076755;28;20020;-74
2022/06/19 09:57:46;;;;;;;7.03;0.17;;;20.00;99.90;;;;;;5094696;28;20119;-74
2022/06/19 10:00:34;;;;;;;3.67;0.00;;;19.50;99.90;;;;;;5076477;28;20510;-74
2022/06/19 10:03:24;;;;;;;2.83;0.00;;;19.30;99.90;;;;;;5094696;28;20020;-74
2022/06/19 10:06:15;;;;;;;5.70;0.30;;;19.10;99.90;;;;;;5094920;28;20024;-74
2022/06/19 10:08:55;;;;;;;4.28;0.00;;;19.00;99.90;;;;;;5094902;28;20058;-74
2022/06/19 10:11:39;;;;;;;0.28;0.10;;;18.90;99.90;;;;;;5094596;28;20031;-73
2022/06/19 10:14:21;;;;;;;3.00;0.30;;;18.90;99.90;;;;;;5094865;28;20412;-73
2022/06/19 10:17:10;;;;;;;2.15;0.03;;;18.90;99.90;;;;;;5094371;28;20107;-73
2022/06/19 10:19:50;;;;;;;1.80;0.00;;;19.00;99.90;;;;;;5075579;28;20067;-73
2022/06/19 10:22:30;;;;;;;2.65;0.28;;;19.00;99.90;;;;;;5094370;28;20108;-75
2022/06/19 10:25:28;;;;;;;2.10;0.17;;;18.70;99.90;;;;;;5076216;28;20020;-75
2022/06/19 10:28:12;;;;;;;0.55;0.00;;;18.40;99.90;;;;;;5094427;28;20045;-78
2022/06/19 10:30:49;;;;;;;1.50;0.00;;;18.30;99.90;;;;;;5076363;28;20495;-75
2022/06/19 10:33:24;;;;;;;1.35;0.00;;;18.20;99.90;;;;;;5095054;28;20027;-74
2022/06/19 10:36:04;;;;;;;4.90;0.03;;;18.00;99.90;;;;;;5094479;28;20480;-73
2022/06/19 10:39:05;;;;;;;2.30;0.00;;;17.80;99.90;;;;;;5076529;28;20499;-73
2022/06/19 10:42:05;;;;;;;4.32;0.00;;;17.70;99.90;;;;;;5094458;28;20020;-73
2022/06/19 10:44:45;;;;;;;1.08;0.00;;;17.60;99.90;;;;;;5076468;28;20427;-73
2022/06/19 10:47:38;;;;;;;2.95;0.10;;;17.50;99.90;;;;;;5094067;28;20020;-73
2022/06/19 10:50:28;;;;;;;2.80;0.08;;;17.40;99.90;;;;;;5094091;28;20062;-74
2022/06/19 10:53:18;;;;;;;1.00;0.10;;;17.30;99.90;;;;;;5094276;28;20020;-73
2022/06/19 10:55:53;;;;;;;5.28;0.00;;;17.20;99.90;;;;;;5076296;28;20024;-73
2022/06/19 10:58:24;;;;;;;3.67;0.10;;;17.30;99.90;;;;;;5094456;28;20035;-73
2022/06/19 11:00:53;;;;;;;5.60;1.30;;;17.30;99.90;;;;;;5094508;28;20055;-73
2022/06/19 11:06:36;;;;;;;8.07;0.45;;;17.30;99.90;;;;;;5094187;28;20043;-74
2022/06/19 11:09:07;;;;;;;3.38;0.10;;;17.60;99.90;;;;;;5094221;28;20067;-73
2022/06/19 11:11:36;;;;;;;4.57;0.00;;;18.10;99.90;;;;;;5075614;28;20032;-73
2022/06/19 11:14:12;;;;;;;3.88;0.10;;;18.60;99.90;;;;;;5093913;28;20024;-73
2022/06/19 11:17:04;;;;;;;8.27;0.00;;;19.20;99.90;;;;;;5093676;28;20031;-73
2022/06/19 11:19:38;;;;;;;5.63;0.35;;;19.20;99.90;;;;;;5075817;28;20039;-72
2022/06/19 11:22:18;;;;;;;2.20;0.10;;;19.30;99.90;;;;;;5093858;28;20020;-72
2022/06/19 11:24:43;;;;;;;3.20;0.20;;;19.20;99.90;;;;;;5093939;28;20016;-74
2022/06/19 11:27:18;;;;;;;3.15;0.00;;;19.00;99.90;;;;;;5093853;28;20086;-73
2022/06/19 11:29:47;;;;;;;6.93;1.23;;;18.90;99.90;;;;;;5094172;28;20020;-73
2022/06/19 11:32:16;;;;;;;7.82;0.80;;;18.90;99.90;;;;;;5093701;28;20115;-73
2022/06/19 11:34:53;;;;;;;3.53;0.20;;;19.20;99.90;;;;;;5075883;28;20112;-73
2022/06/19 11:37:23;;;;;;;3.50;0.00;;;19.50;99.90;;;;;;5094066;28;20028;-73
2022/06/19 11:39:53;;;;;;;3.90;0.20;;;19.90;99.90;;;;;;5094261;28;20020;-75
2022/06/19 11:42:37;;;;;;;2.83;0.10;;;20.00;99.90;;;;;;5093910;28;20047;-75
2022/06/19 11:45:31;;;;;;;4.80;0.00;;;20.10;99.90;;;;;;5093930;28;20020;-75
2022/06/19 11:47:56;;;;;;;5.65;0.00;;;20.00;99.90;;;;;;5071996;28;20032;-73
2022/06/19 11:50:37;;;;;;;2.90;0.00;;;20.00;99.90;;;;;;5093904;28;20099;-73
2022/06/19 11:53:05;;;;;;;2.95;0.00;;;20.00;99.90;;;;;;5093943;28;20032;-73
2022/06/19 11:55:53;;;;;;;6.20;0.38;;;20.20;99.90;;;;;;5094359;28;20054;-78
2022/06/19 11:58:32;;;;;;;8.48;0.20;;;20.20;99.90;;;;;;5025607;28;20046;-76
2022/06/19 12:01:10;;;;;;;2.42;0.20;;;19.80;99.90;;;;;;5094004;28;20024;-77
2022/06/19 12:03:58;;;;;;;3.67;0.10;;;19.60;99.90;;;;;;5093756;28;20519;-75
2022/06/19 12:06:45;;;;;;;;;;;19.20;99.90;;;;;;5075195;28;20032;-76
2022/06/19 12:09:39;;;;;;;2.75;0.00;;;19.00;99.90;;;;;;5093329;28;19939;-75
2022/06/19 12:12:18;;;;;;;2.20;0.05;;;18.80;99.90;;;;;;5089770;28;20069;-75
2022/06/19 12:14:47;;;;;;;1.88;0.40;;;18.50;99.90;;;;;;5094632;28;20469;-75
2022/06/19 12:17:25;;;;;;;1.45;0.00;;;18.20;99.90;;;;;;5096950;28;20032;-76
2022/06/19 12:20:16;;;;;;;;;;;18.20;99.90;;;;;;5078599;28;20035;-76
2022/06/19 12:22:55;;;;;;;2.42;0.15;;;18.00;99.90;;;;;;5078331;28;19998;-76
2022/06/19 12:25:33;;;;;;;2.00;0.20;;;17.90;99.90;;;;;;5096561;28;20030;-76
2022/06/19 12:28:50;;;;;;;0.17;0.00;;;17.80;99.90;;;;;;5078247;28;20020;-75
2022/06/19 12:31:30;;;;;;;3.42;0.20;;;17.70;99.90;;;;;;5096497;28;20141;-75
2022/06/19 12:34:02;;;;;;;0.63;0.00;;;18.00;99.90;;;;;;5097005;28;20451;-75
2022/06/19 12:36:32;;;;;;;0.80;0.00;;;18.40;99.90;;;;;;5096457;28;20381;-75
2022/06/19 12:38:58;;;;;;;1.45;0.10;;;18.80;99.90;;;;;;5096416;28;20050;-76
2022/06/19 12:41:42;;;;;;;2.40;0.10;;;19.10;99.90;;;;;;5096145;28;20016;-77
2022/06/19 12:44:11;;;;;;;3.47;0.00;;;19.10;99.90;;;;;;5096238;28;20103;-77
2022/06/19 12:47:19;;;;;;;2.88;0.10;;;19.20;99.90;;;;;;5096220;28;20489;-74
2022/06/19 12:50:17;;;;;;;5.57;0.32;;;19.20;99.90;;;;;;5078017;28;20032;-75
2022/06/19 12:52:59;;;;;;;2.25;0.30;;;19.20;99.90;;;;;;5077854;28;20047;-76
2022/06/19 12:55:36;;;;;;;0.10;0.00;;;19.50;99.90;;;;;;5095963;28;20496;-74
2022/06/19 12:58:12;;;;;;;1.10;0.10;;;20.00;99.90;;;;;;5077573;28;20032;-73
2022/06/19 13:00:47;;;;;;;2.95;0.30;;;20.40;99.60;;;;;;5077713;28;20066;-74
2022/06/19 13:03:38;;;;;;;0.63;0.10;;;21.20;99.80;;;;;;5095931;28;20024;-74
2022/06/19 13:06:30;;;;;;;1.02;0.08;;;21.60;95.70;;;;;;5077559;28;20020;-74
2022/06/19 13:09:41;;;;;;;0.95;0.10;;;21.60;94.20;;;;;;5077542;28;20469;-74
2022/06/19 13:12:34;;;;;;;0.30;0.00;;;21.50;94.00;;;;;;5056661;28;20459;-74
2022/06/19 13:15:21;;;;;;;0.47;0.17;;;21.30;93.10;;;;;;5096080;28;20028;-74
2022/06/19 13:17:57;;;;;;;3.20;0.00;;;21.20;95.00;;;;;;5077772;28;20493;-74
2022/06/19 13:20:29;;;;;;;2.33;0.20;;;21.40;95.10;;;;;;5096190;28;20473;-74
2022/06/19 13:23:18;;;;;;;2.50;0.10;;;21.60;93.30;;;;;;5096986;28;20028;-74
2022/06/19 13:26:06;;;;;;;1.27;0.10;;;21.80;94.20;;;;;;5077817;28;20028;-74
2022/06/19 13:28:55;;;;;;;1.50;0.00;;;22.20;91.60;;;;;;5096389;28;20129;-74
2022/06/19 13:31:35;;;;;;;1.17;0.10;;;22.60;93.00;;;;;;5096571;28;20062;-74
2022/06/19 13:34:28;;;;;;;2.47;0.35;;;23.10;90.70;;;;;;5097037;28;20024;-73
2022/06/19 13:37:23;;;;;;;2.30;0.00;;;23.20;88.70;;;;;;5095370;28;20468;-74
2022/06/19 13:40:04;;;;;;;2.78;0.32;;;23.30;87.40;;;;;;5097007;28;20073;-74
2022/06/19 13:42:57;;;;;;;0.43;0.00;;;23.10;86.00;;;;;;5096062;28;20031;-74
2022/06/19 13:45:37;;;;;;;3.42;0.30;;;22.90;86.10;;;;;;5095746;28;20080;-74